Chrisanthi — SX7108 — position and weather

sailwx.info

Track history (hours):
 
Tides and Currents Weather Stations Pressure Air Temp Water Temp Dewpoint Dewpoint Depression Visibility Wind Speed Wind Dir Waves Ship Positions

Chrisanthi

Last reported at 2016-Apr-29 00:14 UTC. Time now 2016-May-01 02:23 UTC.
Position N 38°10' E 024°39'.

Length 56 m; draft 3.9 m.

Type: Ship (hazmat cat A). MMSI: 237009100.

Date/timePositionNaut miles runAvg speedWind from/ knotsBaromVisibWave heightAir tempDewpointWater temp
2016-Apr-29 00:14N 38°10' E 024°39'810.4
2016-Apr-28 23:28N 38°03' E 024°39'910.0
2016-Apr-28 22:33N 37°54' E 024°40'1010.5
2016-Apr-28 21:33N 37°45' E 024°47'1110.7
2016-Apr-28 20:33N 37°36' E 024°54'1210.3
2016-Apr-28 19:21N 37°25' E 025°03'810.1
2016-Apr-28 18:32N 37°17' E 025°06'1010.3
2016-Apr-28 17:33N 37°07' E 025°07'2 2.2
2016-Apr-28 16:32N 37°05' E 025°09'0 0.0
2016-Apr-28 12:22N 37°05' E 025°09'5 6.8
2016-Apr-28 11:33N 37°10' E 025°13'8 7.6
2016-Apr-28 10:33N 37°06' E 025°22'0 0.3
2016-Apr-28 09:33N 37°06' E 025°22'0 0.0
2016-Apr-28 08:33N 37°06' E 025°22'0 0.0
2016-Apr-28 07:33N 37°06' E 025°22'7 6.9
2016-Apr-28 06:33N 36°59' E 025°22'9 8.7
2016-Apr-28 05:32N 36°55' E 025°32'2 0.8
2016-Apr-28 03:33N 36°55' E 025°33'  
2016-Apr-25 14:14N 37°10' E 025°47'1710.3
2016-Apr-25 12:33N 37°14' E 025°26'1010.4
2016-Apr-25 11:33N 37°16' E 025°13'1210.1
2016-Apr-25 10:25N 37°19' E 024°59'5010.0
2016-Apr-25 05:29N 37°35' E 024°00'9 9.9
2016-Apr-25 04:33N 37°38' E 023°49'9 9.4
2016-Apr-25 03:33N 37°44' E 023°40'9 9.1
2016-Apr-25 02:33N 37°49' E 023°30'10 9.9
2016-Apr-25 01:33N 37°52' E 023°18'10 9.9
2016-Apr-25 00:33N 37°55' E 023°06'1 0.7
2016-Apr-24 23:25N 37°55' E 023°05'0 0.0
2016-Apr-24 22:33N 37°55' E 023°05'0 0.0
2016-Apr-24 21:21N 37°55' E 023°05'0 0.0
2016-Apr-24 20:33N 37°55' E 023°05'0 0.0
2016-Apr-24 19:33N 37°55' E 023°05'0 0.0
2016-Apr-24 18:33N 37°55' E 023°05'0 0.0
2016-Apr-24 17:32N 37°55' E 023°05'0 0.0
2016-Apr-24 16:33N 37°55' E 023°05'0 0.0
2016-Apr-24 13:32N 37°55' E 023°05'0 0.0
2016-Apr-24 12:32N 37°55' E 023°05'0 0.0
2016-Apr-24 11:30N 37°55' E 023°05'0 0.0
2016-Apr-24 10:21N 37°55' E 023°05'0 0.0
2016-Apr-24 09:28N 37°55' E 023°05'2 2.1
2016-Apr-24 08:33N 37°54' E 023°07'1010.2
2016-Apr-24 07:32N 37°46' E 023°15'9 9.2
2016-Apr-24 06:33N 37°40' E 023°24'1010.2
2016-Apr-24 05:33N 37°36' E 023°36'1010.1
2016-Apr-24 04:33N 37°31' E 023°47'1110.0
2016-Apr-24 03:27N 37°25' E 023°58'106 3.1
2016-Apr-22 17:20N 36°37' E 025°57'31 5.0
2016-Apr-22 11:08N 36°51' E 025°22'610.1
2016-Apr-22 10:31N 36°54' E 025°29'6 1.5
2016-Apr-22 06:32N 36°56' E 025°36'9 9.1
2016-Apr-22 05:33N 36°55' E 025°25'1010.0
2016-Apr-22 04:33N 37°03' E 025°18'4 4.4
2016-Apr-22 03:33N 37°06' E 025°22'0 0.0
2016-Apr-22 02:33N 37°06' E 025°22'0 0.0
2016-Apr-22 01:34N 37°06' E 025°22'0 0.0
2016-Apr-22 00:34N 37°06' E 025°22'0 0.2
2016-Apr-21 23:33N 37°06' E 025°22'8 7.8
2016-Apr-21 22:30N 37°09' E 025°12'5 2.3
2016-Apr-21 20:27N 37°05' E 025°09'0 0.0
2016-Apr-21 19:32N 37°05' E 025°09'0 0.0
2016-Apr-21 18:12N 37°05' E 025°09'2 1.4
2016-Apr-21 16:31N 37°07' E 025°08'1010.2
2016-Apr-21 15:33N 37°15' E 025°16'1010.2
2016-Apr-21 14:33N 37°23' E 025°24'1010.2
2016-Apr-21 13:32N 37°32' E 025°30'68 2.4
2016-Apr-20 09:21N 37°13' E 026°53'5 1.3
2016-Apr-20 05:31N 37°08' E 026°51'0 0.0
2016-Apr-20 04:25N 37°08' E 026°51'0 0.0
2016-Apr-20 03:32N 37°08' E 026°51'0 0.0
2016-Apr-20 02:28N 37°08' E 026°51'0 0.0
2016-Apr-20 01:33N 37°08' E 026°51'0 0.0
2016-Apr-19 21:22N 37°08' E 026°51'7 9.0
2016-Apr-19 20:32N 37°00' E 026°53'8 1.6
2016-Apr-19 15:33N 36°54' E 026°60'1010.2
2016-Apr-19 14:34N 36°45' E 026°54'20 2.5
2016-Apr-19 06:17N 36°54' E 027°18'  
Track history (hours):
 
Tides and Currents Weather Stations Pressure Air Temp Water Temp Dewpoint Dewpoint Depression Visibility Wind Speed Wind Dir Waves Ship Positions

Chrisanthi

Last reported at 2016-Apr-29 00:14 UTC. Time now 2016-May-01 02:23 UTC.
Position N 38°10' E 024°39'.

Length 56 m; draft 3.9 m.

Type: Ship (hazmat cat A). MMSI: 237009100.

Date/timePositionNaut miles runAvg speedWind from/ knotsBaromVisibWave heightAir tempDewpointWater temp
2016-Apr-29 00:14N 38°10' E 024°39'810.4
2016-Apr-28 23:28N 38°03' E 024°39'910.0
2016-Apr-28 22:33N 37°54' E 024°40'1010.5
2016-Apr-28 21:33N 37°45' E 024°47'1110.7
2016-Apr-28 20:33N 37°36' E 024°54'1210.3
2016-Apr-28 19:21N 37°25' E 025°03'810.1
2016-Apr-28 18:32N 37°17' E 025°06'1010.3
2016-Apr-28 17:33N 37°07' E 025°07'2 2.2
2016-Apr-28 16:32N 37°05' E 025°09'0 0.0
2016-Apr-28 12:22N 37°05' E 025°09'5 6.8
2016-Apr-28 11:33N 37°10' E 025°13'8 7.6
2016-Apr-28 10:33N 37°06' E 025°22'0 0.3
2016-Apr-28 09:33N 37°06' E 025°22'0 0.0
2016-Apr-28 08:33N 37°06' E 025°22'0 0.0
2016-Apr-28 07:33N 37°06' E 025°22'7 6.9
2016-Apr-28 06:33N 36°59' E 025°22'9 8.7
2016-Apr-28 05:32N 36°55' E 025°32'2 0.8
2016-Apr-28 03:33N 36°55' E 025°33'  
2016-Apr-25 14:14N 37°10' E 025°47'1710.3
2016-Apr-25 12:33N 37°14' E 025°26'1010.4
2016-Apr-25 11:33N 37°16' E 025°13'1210.1
2016-Apr-25 10:25N 37°19' E 024°59'5010.0
2016-Apr-25 05:29N 37°35' E 024°00'9 9.9
2016-Apr-25 04:33N 37°38' E 023°49'9 9.4
2016-Apr-25 03:33N 37°44' E 023°40'9 9.1
2016-Apr-25 02:33N 37°49' E 023°30'10 9.9
2016-Apr-25 01:33N 37°52' E 023°18'10 9.9
2016-Apr-25 00:33N 37°55' E 023°06'1 0.7
2016-Apr-24 23:25N 37°55' E 023°05'0 0.0
2016-Apr-24 22:33N 37°55' E 023°05'0 0.0
2016-Apr-24 21:21N 37°55' E 023°05'0 0.0
2016-Apr-24 20:33N 37°55' E 023°05'0 0.0
2016-Apr-24 19:33N 37°55' E 023°05'0 0.0
2016-Apr-24 18:33N 37°55' E 023°05'0 0.0
2016-Apr-24 17:32N 37°55' E 023°05'0 0.0
2016-Apr-24 16:33N 37°55' E 023°05'0 0.0
2016-Apr-24 13:32N 37°55' E 023°05'0 0.0
2016-Apr-24 12:32N 37°55' E 023°05'0 0.0
2016-Apr-24 11:30N 37°55' E 023°05'0 0.0
2016-Apr-24 10:21N 37°55' E 023°05'0 0.0
2016-Apr-24 09:28N 37°55' E 023°05'2 2.1
2016-Apr-24 08:33N 37°54' E 023°07'1010.2
2016-Apr-24 07:32N 37°46' E 023°15'9 9.2
2016-Apr-24 06:33N 37°40' E 023°24'1010.2
2016-Apr-24 05:33N 37°36' E 023°36'1010.1
2016-Apr-24 04:33N 37°31' E 023°47'1110.0
2016-Apr-24 03:27N 37°25' E 023°58'106 3.1
2016-Apr-22 17:20N 36°37' E 025°57'31 5.0
2016-Apr-22 11:08N 36°51' E 025°22'610.1
2016-Apr-22 10:31N 36°54' E 025°29'6 1.5
2016-Apr-22 06:32N 36°56' E 025°36'9 9.1
2016-Apr-22 05:33N 36°55' E 025°25'1010.0
2016-Apr-22 04:33N 37°03' E 025°18'4 4.4
2016-Apr-22 03:33N 37°06' E 025°22'0 0.0
2016-Apr-22 02:33N 37°06' E 025°22'0 0.0
2016-Apr-22 01:34N 37°06' E 025°22'0 0.0
2016-Apr-22 00:34N 37°06' E 025°22'0 0.2
2016-Apr-21 23:33N 37°06' E 025°22'8 7.8
2016-Apr-21 22:30N 37°09' E 025°12'5 2.3
2016-Apr-21 20:27N 37°05' E 025°09'0 0.0
2016-Apr-21 19:32N 37°05' E 025°09'0 0.0
2016-Apr-21 18:12N 37°05' E 025°09'2 1.4
2016-Apr-21 16:31N 37°07' E 025°08'1010.2
2016-Apr-21 15:33N 37°15' E 025°16'1010.2
2016-Apr-21 14:33N 37°23' E 025°24'1010.2
2016-Apr-21 13:32N 37°32' E 025°30'68 2.4
2016-Apr-20 09:21N 37°13' E 026°53'5 1.3
2016-Apr-20 05:31N 37°08' E 026°51'0 0.0
2016-Apr-20 04:25N 37°08' E 026°51'0 0.0
2016-Apr-20 03:32N 37°08' E 026°51'0 0.0
2016-Apr-20 02:28N 37°08' E 026°51'0 0.0
2016-Apr-20 01:33N 37°08' E 026°51'0 0.0
2016-Apr-19 21:22N 37°08' E 026°51'7 9.0
2016-Apr-19 20:32N 37°00' E 026°53'8 1.6
2016-Apr-19 15:33N 36°54' E 026°60'1010.2
2016-Apr-19 14:34N 36°45' E 026°54'20 2.5
2016-Apr-19 06:17N 36°54' E 027°18'  

Dump ship's entire track history